Time;durP1;ratioP1;P1;durP2;ratioP2;P2;SDS_P1;SDS_P2;PMS_P1;PMS_P2;Temp;Humidity;BMP_temperature;BMP_pressure;BME280_temperature;BME280_humidity;BME280_pressure;Samples;Min_cycle;Max_cycle;Signal;HPM_P1;HPM_P2
2024/03/24 00:02:18;;;;;;;3.85;2.42;;;10.20;76.80;;;;;;4968810;28;20043;-39
2024/03/24 00:04:44;;;;;;;4.10;2.50;;;10.30;76.90;;;;;;4972397;28;20061;-38
2024/03/24 00:07:10;;;;;;;4.53;2.70;;;10.20;76.80;;;;;;4976852;28;20066;-37
2024/03/24 00:09:36;;;;;;;3.75;2.58;;;10.20;76.80;;;;;;4975872;28;20011;-38
2024/03/24 00:12:02;;;;;;;4.03;2.67;;;10.20;76.80;;;;;;4976866;28;20091;-36
2024/03/24 00:14:29;;;;;;;5.13;2.90;;;10.20;76.90;;;;;;4988066;28;20031;-36
2024/03/24 00:16:55;;;;;;;3.58;2.70;;;10.20;76.90;;;;;;4981783;28;20050;-38
2024/03/24 00:19:20;;;;;;;4.80;2.63;;;10.20;76.90;;;;;;4980712;28;20035;-38
2024/03/24 00:21:46;;;;;;;4.22;3.00;;;10.20;77.00;;;;;;4973453;28;20347;-39
2024/03/24 00:24:12;;;;;;;3.15;2.40;;;10.20;77.00;;;;;;4977960;28;20114;-39
2024/03/24 00:26:37;;;;;;;3.80;2.53;;;10.10;76.80;;;;;;4964995;28;20026;-38
2024/03/24 00:29:03;;;;;;;4.57;2.40;;;10.20;76.90;;;;;;4974659;28;20015;-36
2024/03/24 00:31:29;;;;;;;4.80;2.80;;;10.10;76.90;;;;;;4956675;28;20054;-39
2024/03/24 00:33:55;;;;;;;5.03;2.90;;;10.20;77.00;;;;;;4972405;28;20101;-35
2024/03/24 00:36:20;;;;;;;3.88;2.80;;;10.10;76.90;;;;;;4975186;28;20098;-38
2024/03/24 00:38:48;;;;;;;4.70;2.83;;;10.10;77.00;;;;;;4977070;28;20027;-39
2024/03/24 00:41:14;;;;;;;5.75;2.63;;;10.20;77.00;;;;;;4965203;28;20078;-38
2024/03/24 00:43:39;;;;;;;4.50;2.70;;;10.10;77.00;;;;;;4980764;28;20035;-38
2024/03/24 00:46:05;;;;;;;3.78;2.88;;;10.10;77.00;;;;;;4977671;28;20050;-39
2024/03/24 00:48:31;;;;;;;5.25;2.67;;;10.10;77.00;;;;;;4966082;28;20035;-38
2024/03/24 00:50:56;;;;;;;3.88;2.63;;;10.10;77.10;;;;;;4985151;28;20034;-39
2024/03/24 00:53:22;;;;;;;4.22;2.80;;;10.10;77.10;;;;;;4963038;28;20026;-37
2024/03/24 00:55:48;;;;;;;7.18;2.90;;;10.10;77.00;;;;;;4976217;28;20558;-38
2024/03/24 00:58:14;;;;;;;3.83;2.75;;;10.10;77.10;;;;;;4976210;28;20026;-36
2024/03/24 01:00:40;;;;;;;4.05;3.05;;;10.10;77.10;;;;;;4975767;28;20061;-39
2024/03/24 01:03:06;;;;;;;4.47;2.67;;;10.10;77.10;;;;;;4976455;28;20021;-37
2024/03/24 01:05:31;;;;;;;3.95;2.83;;;10.10;77.10;;;;;;4970773;28;20546;-37
2024/03/24 01:07:57;;;;;;;3.90;2.75;;;10.10;77.10;;;;;;4972759;28;20065;-39
2024/03/24 01:10:24;;;;;;;4.32;3.00;;;10.10;77.10;;;;;;4969795;28;20109;-39
2024/03/24 01:12:50;;;;;;;5.13;3.13;;;10.10;77.10;;;;;;4977975;28;20058;-38
2024/03/24 01:15:16;;;;;;;4.78;3.00;;;10.10;77.10;;;;;;4975875;28;20079;-39
2024/03/24 01:17:43;;;;;;;4.55;3.35;;;10.00;77.10;;;;;;4980119;28;20050;-37
2024/03/24 01:20:12;;;;;;;5.32;3.08;;;10.10;77.20;;;;;;4972480;28;20042;-37
2024/03/24 01:22:42;;;;;;;4.60;2.90;;;10.10;77.20;;;;;;4975483;28;20030;-38
2024/03/24 01:25:08;;;;;;;4.85;3.20;;;10.10;77.20;;;;;;4972329;28;20526;-39
2024/03/24 01:27:34;;;;;;;4.13;2.80;;;10.10;77.20;;;;;;4978372;28;20042;-37
2024/03/24 01:30:00;;;;;;;4.72;2.90;;;10.10;77.20;;;;;;4976663;28;20030;-37
2024/03/24 01:32:26;;;;;;;3.50;2.90;;;10.10;77.30;;;;;;4988505;28;20034;-36
2024/03/24 01:34:52;;;;;;;5.03;3.20;;;10.10;77.30;;;;;;4975244;28;20033;-38
2024/03/24 01:37:18;;;;;;;4.28;3.40;;;10.10;77.30;;;;;;4970428;28;20100;-38
2024/03/24 01:39:48;;;;;;;4.53;3.13;;;10.00;77.20;;;;;;4971854;28;20035;-39
2024/03/24 01:42:14;;;;;;;4.50;3.17;;;10.10;77.30;;;;;;4973921;28;20035;-38
2024/03/24 01:44:40;;;;;;;4.88;3.30;;;10.10;77.30;;;;;;4976450;28;20043;-38
2024/03/24 01:47:07;;;;;;;4.60;3.47;;;10.10;77.30;;;;;;4979750;28;20045;-36
2024/03/24 01:49:33;;;;;;;5.30;3.47;;;10.10;77.30;;;;;;4974911;28;20026;-37
2024/03/24 01:51:59;;;;;;;4.47;3.25;;;10.00;77.30;;;;;;4965245;28;20102;-39
2024/03/24 01:54:29;;;;;;;5.30;3.30;;;10.00;77.30;;;;;;4961932;28;20077;-36
2024/03/24 01:56:54;;;;;;;5.00;3.58;;;10.10;77.90;;;;;;4977067;28;20059;-35
2024/03/24 01:59:20;;;;;;;3.97;3.30;;;10.00;77.30;;;;;;4968721;28;20046;-36
2024/03/24 02:01:46;;;;;;;5.00;3.80;;;10.10;77.30;;;;;;4963556;28;20031;-37
2024/03/24 02:04:12;;;;;;;4.75;3.30;;;10.00;77.30;;;;;;4977144;28;20035;-38
2024/03/24 02:06:37;;;;;;;4.68;3.58;;;10.10;77.40;;;;;;4967560;28;20091;-36
2024/03/24 02:09:03;;;;;;;5.03;3.70;;;10.10;77.90;;;;;;4967228;28;20671;-37
2024/03/24 02:11:29;;;;;;;5.30;3.28;;;10.10;77.30;;;;;;4973635;28;20023;-35
2024/03/24 02:13:59;;;;;;;5.32;3.35;;;10.00;77.30;;;;;;4979050;28;20073;-35
2024/03/24 02:16:26;;;;;;;4.53;3.55;;;10.10;77.40;;;;;;4979092;28;20562;-37
2024/03/24 02:18:52;;;;;;;4.40;3.58;;;10.00;77.40;;;;;;4973211;28;20053;-39
2024/03/24 02:21:18;;;;;;;5.20;3.60;;;10.10;77.40;;;;;;4969804;28;20055;-34
2024/03/24 02:23:44;;;;;;;5.75;3.72;;;10.00;77.40;;;;;;4967284;28;20484;-39
2024/03/24 02:26:09;;;;;;;4.57;3.50;;;10.10;77.40;;;;;;4973704;28;20042;-37
2024/03/24 02:28:35;;;;;;;6.40;3.70;;;10.00;77.40;;;;;;4966332;28;20023;-36
2024/03/24 02:31:01;;;;;;;6.22;3.75;;;10.00;77.40;;;;;;4973314;28;20026;-39
2024/03/24 02:33:27;;;;;;;4.97;3.90;;;10.10;77.40;;;;;;4978944;28;20038;-37
2024/03/24 02:35:53;;;;;;;4.72;3.65;;;10.10;77.40;;;;;;4968159;28;20031;-38
2024/03/24 02:38:18;;;;;;;5.43;3.97;;;10.00;77.40;;;;;;4974049;28;20041;-39
2024/03/24 02:40:48;;;;;;;5.65;3.83;;;10.10;77.40;;;;;;4961744;28;20035;-38
2024/03/24 02:43:14;;;;;;;5.43;3.50;;;10.10;77.40;;;;;;4979229;28;20038;-38
2024/03/24 02:45:40;;;;;;;4.70;3.60;;;10.00;77.40;;;;;;4965944;28;20073;-38
2024/03/24 02:48:06;;;;;;;5.20;3.80;;;10.10;77.40;;;;;;4973485;28;20070;-38
2024/03/24 02:50:31;;;;;;;4.88;3.42;;;10.10;77.40;;;;;;4974815;28;20503;-37
2024/03/24 02:52:57;;;;;;;5.30;3.92;;;10.10;77.40;;;;;;4971023;28;20027;-36
2024/03/24 02:55:25;;;;;;;4.93;3.60;;;10.10;77.40;;;;;;4963045;28;20054;-39
2024/03/24 02:57:53;;;;;;;5.68;4.00;;;10.10;77.40;;;;;;4971746;28;20027;-38
2024/03/24 03:00:20;;;;;;;5.90;3.90;;;10.10;77.50;;;;;;4953559;28;20034;-39
2024/03/24 03:02:46;;;;;;;6.30;3.75;;;10.00;77.50;;;;;;4976372;28;20023;-39
2024/03/24 03:05:12;;;;;;;5.80;3.90;;;10.00;77.50;;;;;;4982165;28;20027;-40
2024/03/24 03:07:37;;;;;;;8.32;4.10;;;10.00;77.50;;;;;;4973028;28;20098;-40
2024/03/24 03:10:07;;;;;;;5.80;3.60;;;10.10;77.50;;;;;;4970699;28;20059;-38
2024/03/24 03:12:34;;;;;;;5.15;3.65;;;10.00;77.50;;;;;;4973283;28;20022;-39
2024/03/24 03:15:00;;;;;;;5.43;3.88;;;10.00;77.50;;;;;;4981773;28;20024;-40
2024/03/24 03:17:26;;;;;;;4.78;3.72;;;10.10;77.50;;;;;;4975128;28;20054;-39
2024/03/24 03:19:52;;;;;;;5.72;3.78;;;10.10;77.50;;;;;;4976400;28;20503;-36
2024/03/24 03:22:18;;;;;;;7.32;3.67;;;10.10;77.50;;;;;;4972774;28;20031;-38
2024/03/24 03:24:43;;;;;;;5.65;3.90;;;10.10;77.50;;;;;;4959667;28;20023;-39
2024/03/24 03:27:11;;;;;;;4.97;3.47;;;10.10;77.50;;;;;;4977093;28;20038;-37
2024/03/24 03:29:37;;;;;;;5.63;4.32;;;10.10;77.50;;;;;;4980913;28;20034;-36
2024/03/24 03:32:03;;;;;;;5.55;4.05;;;10.10;77.50;;;;;;4975573;28;20035;-40
2024/03/24 03:34:29;;;;;;;5.07;3.65;;;10.10;77.50;;;;;;4972193;28;20120;-37
2024/03/24 03:36:54;;;;;;;5.45;3.80;;;10.10;77.50;;;;;;4975949;28;20038;-40
2024/03/24 03:39:20;;;;;;;5.80;3.70;;;10.10;77.50;;;;;;4979418;28;20045;-39
2024/03/24 03:41:46;;;;;;;6.72;4.03;;;10.10;77.60;;;;;;4980413;28;20032;-39
2024/03/24 03:44:11;;;;;;;5.53;4.07;;;10.10;77.60;;;;;;4988801;28;20054;-39
2024/03/24 03:46:39;;;;;;;5.45;3.88;;;10.10;77.60;;;;;;4969713;28;20391;-36
2024/03/24 03:49:05;;;;;;;5.20;3.83;;;10.10;77.60;;;;;;4965166;28;20042;-40
2024/03/24 03:51:37;;;;;;;5.22;3.88;;;10.10;77.60;;;;;;4978329;28;20042;-39
2024/03/24 03:54:06;;;;;;;5.43;4.00;;;10.10;77.60;;;;;;4965507;28;20097;-37
2024/03/24 03:56:32;;;;;;;4.93;3.75;;;10.10;78.20;;;;;;4975465;28;20067;-39
2024/03/24 03:58:57;;;;;;;5.15;3.85;;;10.10;77.70;;;;;;4973049;28;20015;-39
2024/03/24 04:01:23;;;;;;;5.90;4.05;;;10.10;77.70;;;;;;4959765;28;20087;-39
2024/03/24 04:03:49;;;;;;;7.28;4.00;;;10.10;77.70;;;;;;4975717;28;20508;-39
2024/03/24 04:06:15;;;;;;;5.70;3.80;;;10.10;77.70;;;;;;4968746;28;20050;-38
2024/03/24 04:08:40;;;;;;;5.10;3.72;;;10.10;77.70;;;;;;4975776;28;20075;-38
2024/03/24 04:11:09;;;;;;;6.00;3.47;;;10.10;77.70;;;;;;4970713;28;20046;-40
2024/03/24 04:13:35;;;;;;;5.28;3.42;;;10.10;77.70;;;;;;4982239;28;20026;-39
2024/03/24 04:16:03;;;;;;;5.30;3.58;;;10.10;77.70;;;;;;4973520;28;20376;-38
2024/03/24 04:18:29;;;;;;;4.32;2.97;;;10.10;77.70;;;;;;4976197;28;20053;-39
2024/03/24 04:20:54;;;;;;;4.25;2.85;;;10.10;77.70;;;;;;4982834;28;20597;-39
2024/03/24 04:23:20;;;;;;;4.43;3.00;;;10.10;77.70;;;;;;4969509;28;20038;-39
2024/03/24 04:25:49;;;;;;;4.05;3.00;;;10.10;77.70;;;;;;4973584;28;20023;-39
2024/03/24 04:28:14;;;;;;;3.40;2.60;;;10.10;78.30;;;;;;4978240;28;20405;-40
2024/03/24 04:30:40;;;;;;;3.58;2.75;;;10.00;77.60;;;;;;4955219;28;20032;-40
2024/03/24 04:33:06;;;;;;;3.30;2.50;;;10.00;77.60;;;;;;4973718;28;20020;-37
2024/03/24 04:35:31;;;;;;;4.63;2.60;;;10.00;77.60;;;;;;4978848;28;20450;-37
2024/03/24 04:37:57;;;;;;;3.55;2.42;;;10.00;77.60;;;;;;4967036;28;20030;-40
2024/03/24 04:40:23;;;;;;;3.25;2.10;;;10.00;77.60;;;;;;4973159;28;22601;-36
2024/03/24 04:42:49;;;;;;;3.47;2.35;;;10.00;77.60;;;;;;4976617;28;20037;-38
2024/03/24 04:45:15;;;;;;;3.80;2.72;;;10.00;77.60;;;;;;4974781;28;20050;-39
2024/03/24 04:47:40;;;;;;;3.45;2.30;;;10.00;77.60;;;;;;4981843;28;20057;-38
2024/03/24 04:50:07;;;;;;;4.25;2.10;;;10.00;77.60;;;;;;4977321;28;20018;-39
2024/03/24 04:52:32;;;;;;;2.42;1.80;;;10.00;77.60;;;;;;4975333;28;20026;-38
2024/03/24 04:54:58;;;;;;;2.92;1.95;;;10.00;77.60;;;;;;4975463;28;20058;-39
2024/03/24 04:57:24;;;;;;;2.67;2.03;;;9.90;77.60;;;;;;4968989;28;20023;-37
2024/03/24 04:59:49;;;;;;;2.72;2.10;;;10.00;77.60;;;;;;4984101;28;20454;-38
2024/03/24 05:02:16;;;;;;;2.28;2.00;;;9.90;77.60;;;;;;4978331;28;20031;-40
2024/03/24 05:04:42;;;;;;;2.55;1.88;;;9.90;77.60;;;;;;4977830;28;20027;-40
2024/03/24 05:07:08;;;;;;;2.05;1.85;;;9.90;77.50;;;;;;4978829;28;20046;-36
2024/03/24 05:09:34;;;;;;;2.67;1.90;;;9.90;77.60;;;;;;4975321;28;20033;-36
2024/03/24 05:11:59;;;;;;;3.38;2.00;;;9.90;77.60;;;;;;4968252;28;20717;-36
2024/03/24 05:14:25;;;;;;;3.45;1.80;;;9.90;77.70;;;;;;4975831;28;20284;-33
2024/03/24 05:16:51;;;;;;;4.15;1.80;;;9.90;77.70;;;;;;4967347;28;20055;-35
2024/03/24 05:19:17;;;;;;;2.20;1.60;;;9.90;77.70;;;;;;4968503;28;20053;-35
2024/03/24 05:21:45;;;;;;;1.83;1.70;;;9.90;77.70;;;;;;4972401;28;20034;-36
2024/03/24 05:24:11;;;;;;;3.50;1.80;;;9.90;77.70;;;;;;4974474;28;20034;-39
2024/03/24 05:26:37;;;;;;;2.28;1.83;;;9.90;77.70;;;;;;4976167;28;20039;-41
2024/03/24 05:29:05;;;;;;;2.42;1.70;;;9.80;77.60;;;;;;4971825;28;20094;-39
2024/03/24 05:31:31;;;;;;;2.47;1.67;;;9.80;77.70;;;;;;4978979;28;20027;-38
2024/03/24 05:33:57;;;;;;;3.08;1.75;;;9.80;77.70;;;;;;4980873;28;21223;-39
2024/03/24 05:36:24;;;;;;;2.33;1.90;;;9.80;77.80;;;;;;4976813;28;20031;-37
2024/03/24 05:38:50;;;;;;;2.35;1.70;;;9.80;77.80;;;;;;4975319;28;20030;-39
2024/03/24 05:41:16;;;;;;;2.35;1.60;;;9.70;77.80;;;;;;4967894;28;20034;-39
2024/03/24 05:43:42;;;;;;;1.90;1.70;;;9.80;77.80;;;;;;4980120;28;20128;-39
2024/03/24 05:46:10;;;;;;;2.80;1.70;;;9.70;77.80;;;;;;4953332;28;20547;-40
2024/03/24 05:48:36;;;;;;;1.70;1.60;;;9.70;77.80;;;;;;4966362;28;20113;-38
2024/03/24 05:51:04;;;;;;;2.22;1.70;;;9.70;77.90;;;;;;4976086;28;20031;-40
2024/03/24 05:53:32;;;;;;;1.60;1.50;;;9.70;77.90;;;;;;4971588;28;20130;-40
2024/03/24 05:56:01;;;;;;;2.33;1.63;;;9.70;77.90;;;;;;4971908;28;20132;-37
2024/03/24 05:58:29;;;;;;;1.65;1.55;;;9.60;77.90;;;;;;4968569;28;20042;-38
2024/03/24 06:00:55;;;;;;;1.92;1.40;;;9.60;77.90;;;;;;4973997;28;20035;-38
2024/03/24 06:03:22;;;;;;;2.97;1.60;;;9.60;78.00;;;;;;4969754;28;20029;-38
2024/03/24 06:05:47;;;;;;;2.15;1.67;;;9.60;78.00;;;;;;4979320;28;20038;-38
2024/03/24 06:08:13;;;;;;;1.67;1.52;;;9.60;78.00;;;;;;4974332;28;20100;-40
2024/03/24 06:10:43;;;;;;;3.28;1.70;;;9.60;78.00;;;;;;4974414;28;20023;-39
2024/03/24 06:13:09;;;;;;;2.85;1.90;;;9.60;78.00;;;;;;4970237;28;20039;-39
2024/03/24 06:15:35;;;;;;;2.65;1.50;;;9.60;78.00;;;;;;4970117;28;20646;-40
2024/03/24 06:18:07;;;;;;;2.05;1.63;;;9.50;78.00;;;;;;4973463;28;20043;-37
2024/03/24 06:20:39;;;;;;;2.05;1.50;;;9.50;78.00;;;;;;4968620;28;20058;-39
2024/03/24 06:23:06;;;;;;;2.25;1.50;;;9.50;78.10;;;;;;4976092;28;20023;-38
2024/03/24 06:25:33;;;;;;;1.67;1.58;;;9.50;78.00;;;;;;4973036;28;20037;-39
2024/03/24 06:28:01;;;;;;;2.33;1.60;;;9.50;78.70;;;;;;4972660;28;20050;-40
2024/03/24 06:30:28;;;;;;;2.28;1.58;;;9.50;78.00;;;;;;4973433;28;20031;-38
2024/03/24 06:32:54;;;;;;;2.25;1.70;;;9.50;78.00;;;;;;4970867;28;20108;-40
2024/03/24 06:35:20;;;;;;;3.22;1.80;;;9.50;78.10;;;;;;4976815;28;20019;-39
2024/03/24 06:37:46;;;;;;;2.13;1.60;;;9.50;78.10;;;;;;4967565;28;20012;-37
2024/03/24 06:40:12;;;;;;;1.90;1.50;;;9.50;78.10;;;;;;4967272;28;20043;-39
2024/03/24 06:42:48;;;;;;;2.65;1.63;;;9.50;78.10;;;;;;4961844;28;20089;-39
2024/03/24 06:45:15;;;;;;;4.55;1.70;;;9.50;78.00;;;;;;4976749;28;20057;-39
2024/03/24 06:47:40;;;;;;;3.80;1.80;;;9.50;78.00;;;;;;4978477;28;20528;-39
2024/03/24 06:50:07;;;;;;;1.85;1.50;;;9.50;78.00;;;;;;4971137;28;20019;-40
2024/03/24 06:52:34;;;;;;;4.13;1.70;;;9.50;78.00;;;;;;4971010;28;20026;-40
2024/03/24 06:54:59;;;;;;;3.75;1.75;;;9.50;78.10;;;;;;4978159;28;20107;-40
2024/03/24 06:57:26;;;;;;;1.98;1.60;;;9.50;78.10;;;;;;4979365;28;20023;-38
2024/03/24 06:59:52;;;;;;;3.85;2.05;;;9.50;78.00;;;;;;4979482;28;20078;-40
2024/03/24 07:02:18;;;;;;;2.25;1.75;;;9.40;78.00;;;;;;4975080;28;20037;-39
2024/03/24 07:04:44;;;;;;;4.43;1.90;;;9.40;78.20;;;;;;4967538;28;20035;-39
2024/03/24 07:07:10;;;;;;;3.10;1.80;;;9.50;78.10;;;;;;4963939;28;20386;-38
2024/03/24 07:09:35;;;;;;;2.10;1.67;;;9.40;78.10;;;;;;4963132;28;20023;-40
2024/03/24 07:12:01;;;;;;;2.40;1.60;;;9.40;78.20;;;;;;4969657;28;20066;-37
2024/03/24 07:14:27;;;;;;;2.22;1.80;;;9.50;78.20;;;;;;4972163;28;20476;-38
2024/03/24 07:16:53;;;;;;;3.25;1.90;;;9.40;78.10;;;;;;4979274;28;20037;-39
2024/03/24 07:19:19;;;;;;;2.70;1.90;;;9.50;78.20;;;;;;4971286;28;20035;-40
2024/03/24 07:21:47;;;;;;;2.88;1.85;;;9.50;78.20;;;;;;4964811;28;20031;-40
2024/03/24 07:24:13;;;;;;;3.10;1.70;;;9.50;78.20;;;;;;4979835;28;20055;-40
2024/03/24 07:26:39;;;;;;;2.40;1.90;;;9.40;78.20;;;;;;4965555;28;20116;-39
2024/03/24 07:29:05;;;;;;;2.45;1.77;;;9.50;78.30;;;;;;4980442;28;20030;-39
2024/03/24 07:31:33;;;;;;;3.28;1.80;;;9.50;78.20;;;;;;4949410;28;20073;-37
2024/03/24 07:33:59;;;;;;;2.33;1.83;;;9.50;78.20;;;;;;4981381;28;20062;-36
2024/03/24 07:36:25;;;;;;;2.70;1.60;;;9.50;78.20;;;;;;4977594;28;20041;-40
2024/03/24 07:38:51;;;;;;;3.53;1.80;;;9.50;78.20;;;;;;4975307;28;20042;-38
2024/03/24 07:41:17;;;;;;;3.88;1.98;;;9.50;78.30;;;;;;4982001;28;20427;-36
2024/03/24 07:43:43;;;;;;;4.03;1.98;;;9.50;78.30;;;;;;4971775;28;20026;-36
2024/03/24 07:46:09;;;;;;;2.42;1.90;;;9.50;78.30;;;;;;4970937;28;20085;-34
2024/03/24 07:48:36;;;;;;;3.97;2.00;;;9.50;78.20;;;;;;4979334;28;20142;-33
2024/03/24 07:51:02;;;;;;;5.15;2.20;;;9.50;78.20;;;;;;4968385;28;20015;-37
2024/03/24 07:53:28;;;;;;;4.35;2.00;;;9.50;78.30;;;;;;4974995;28;20049;-32
2024/03/24 07:55:53;;;;;;;4.35;2.10;;;9.50;78.30;;;;;;4980687;28;20039;-40
2024/03/24 07:58:19;;;;;;;3.55;2.30;;;9.50;78.30;;;;;;4971279;28;20127;-39
2024/03/24 08:00:45;;;;;;;4.32;2.13;;;9.50;78.30;;;;;;4977961;28;20038;-39
2024/03/24 08:03:11;;;;;;;5.63;2.50;;;9.50;78.20;;;;;;4985290;28;20031;-39
2024/03/24 08:05:38;;;;;;;4.85;2.20;;;9.50;78.20;;;;;;4986095;28;20033;-37
2024/03/24 08:08:04;;;;;;;4.15;2.50;;;9.60;78.30;;;;;;4982049;28;20031;-41
2024/03/24 08:10:30;;;;;;;3.45;2.22;;;9.60;78.30;;;;;;4977012;28;20066;-38
2024/03/24 08:12:56;;;;;;;4.07;2.72;;;9.60;78.30;;;;;;4978403;28;20031;-38
2024/03/24 08:15:22;;;;;;;4.45;2.40;;;9.60;78.30;;;;;;4984155;28;20038;-37
2024/03/24 08:17:47;;;;;;;3.42;2.25;;;9.60;78.30;;;;;;4962262;28;20059;-40
2024/03/24 08:20:13;;;;;;;4.45;2.50;;;9.60;78.20;;;;;;4968023;28;20034;-37
2024/03/24 08:22:39;;;;;;;4.75;2.40;;;9.60;78.30;;;;;;4974321;28;20030;-40
2024/03/24 08:25:05;;;;;;;4.68;2.53;;;9.60;78.30;;;;;;4984799;28;20487;-38
2024/03/24 08:27:30;;;;;;;5.25;2.80;;;9.70;78.40;;;;;;4978471;28;20023;-39
2024/03/24 08:29:56;;;;;;;5.40;2.67;;;9.60;78.30;;;;;;4962803;28;20031;-38
2024/03/24 08:32:22;;;;;;;5.65;2.88;;;9.70;78.30;;;;;;4969857;28;21469;-37
2024/03/24 08:34:48;;;;;;;4.88;2.55;;;9.70;78.30;;;;;;4979777;28;20064;-40
2024/03/24 08:37:14;;;;;;;5.40;2.97;;;9.80;78.30;;;;;;4972486;28;20035;-37
2024/03/24 08:39:40;;;;;;;5.57;3.03;;;9.80;78.40;;;;;;4969047;28;20058;-36
2024/03/24 08:42:05;;;;;;;4.50;2.88;;;9.80;78.30;;;;;;4975422;28;20483;-38
2024/03/24 08:44:31;;;;;;;5.68;2.90;;;9.80;78.40;;;;;;4969532;28;20054;-40
2024/03/24 08:46:57;;;;;;;5.95;3.00;;;9.80;78.40;;;;;;4976217;28;20376;-39
2024/03/24 08:49:23;;;;;;;6.05;2.97;;;9.80;78.40;;;;;;4969822;28;20035;-36
2024/03/24 08:51:50;;;;;;;7.95;3.08;;;9.80;78.40;;;;;;4975908;28;20027;-37
2024/03/24 08:54:16;;;;;;;4.85;2.78;;;9.80;78.40;;;;;;4963194;28;20109;-39
2024/03/24 08:56:42;;;;;;;6.93;2.70;;;9.80;78.40;;;;;;4979230;28;20497;-40
2024/03/24 08:59:08;;;;;;;6.80;2.95;;;9.80;78.30;;;;;;4973002;28;20515;-37
2024/03/24 09:01:34;;;;;;;4.97;2.60;;;9.90;78.40;;;;;;4968655;28;20070;-39
2024/03/24 09:04:01;;;;;;;6.97;3.42;;;9.90;78.30;;;;;;4975780;28;20010;-37
2024/03/24 09:06:26;;;;;;;5.50;2.80;;;9.90;78.30;;;;;;4959012;28;20475;-40
2024/03/24 09:08:52;;;;;;;4.53;3.00;;;10.00;78.30;;;;;;4979801;28;20011;-38
2024/03/24 09:11:18;;;;;;;5.22;2.80;;;9.90;78.30;;;;;;4978057;28;20024;-40
2024/03/24 09:13:44;;;;;;;7.28;2.85;;;10.00;78.50;;;;;;4955639;28;20030;-35
2024/03/24 09:16:10;;;;;;;4.53;2.65;;;10.00;78.40;;;;;;4974621;28;20086;-40
2024/03/24 09:18:38;;;;;;;5.07;2.75;;;10.00;78.40;;;;;;4977166;28;20319;-36
2024/03/24 09:21:05;;;;;;;7.07;3.03;;;10.00;78.40;;;;;;4974771;28;20030;-37
2024/03/24 09:23:34;;;;;;;5.25;3.10;;;10.10;78.40;;;;;;4974229;28;20027;-39
2024/03/24 09:26:00;;;;;;;4.97;2.55;;;10.10;78.40;;;;;;4980610;28;20476;-40
2024/03/24 09:28:25;;;;;;;4.70;2.55;;;10.10;78.40;;;;;;4977805;28;20038;-38
2024/03/24 09:31:02;;;;;;;6.25;2.90;;;10.10;78.40;;;;;;4974492;28;20038;-36
2024/03/24 09:33:28;;;;;;;5.40;2.72;;;10.20;78.50;;;;;;4959909;28;20167;-39
2024/03/24 09:36:02;;;;;;;4.00;2.40;;;10.10;78.40;;;;;;4962162;28;20402;-39
2024/03/24 09:38:27;;;;;;;4.45;2.58;;;10.20;78.50;;;;;;4969491;28;20034;-37
2024/03/24 09:40:54;;;;;;;5.07;2.47;;;10.10;78.40;;;;;;4976252;28;20101;-39
2024/03/24 09:43:20;;;;;;;5.07;2.60;;;10.20;78.50;;;;;;4973754;28;20023;-39
2024/03/24 09:45:46;;;;;;;5.57;2.42;;;10.20;78.50;;;;;;4982415;28;20023;-36
2024/03/24 09:48:13;;;;;;;4.07;2.58;;;10.20;78.50;;;;;;4979511;28;20072;-39
2024/03/24 09:50:40;;;;;;;5.25;2.50;;;10.20;78.50;;;;;;4975038;28;20061;-40
2024/03/24 09:53:07;;;;;;;6.18;2.90;;;10.20;78.50;;;;;;4970727;28;20039;-37
2024/03/24 09:55:34;;;;;;;4.55;2.50;;;10.20;78.50;;;;;;4972748;28;20039;-39
2024/03/24 09:58:00;;;;;;;5.80;2.40;;;10.20;79.10;;;;;;4950536;28;20434;-39
2024/03/24 10:00:28;;;;;;;4.03;2.10;;;10.20;78.40;;;;;;4979754;28;20439;-40
2024/03/24 10:02:55;;;;;;;5.85;2.30;;;10.20;78.40;;;;;;4964275;28;20779;-40
2024/03/24 10:05:22;;;;;;;6.80;2.22;;;10.30;78.50;;;;;;4974170;28;20041;-39
2024/03/24 10:07:48;;;;;;;6.28;2.30;;;10.30;78.50;;;;;;4969675;28;20030;-40
2024/03/24 10:10:15;;;;;;;2.92;2.00;;;10.30;78.50;;;;;;4967037;28;20023;-38
2024/03/24 10:12:57;;;;;;;3.80;2.10;;;10.30;78.40;;;;;;4972618;28;20023;-40
2024/03/24 10:15:28;;;;;;;3.78;2.10;;;10.30;78.40;;;;;;4983707;28;20030;-40
2024/03/24 10:18:11;;;;;;;4.88;2.13;;;10.40;78.50;;;;;;4965139;28;20027;-40
2024/03/24 10:20:38;;;;;;;3.28;1.65;;;10.30;78.50;;;;;;4968539;28;20086;-40
2024/03/24 10:23:04;;;;;;;4.50;1.80;;;10.30;78.40;;;;;;4955986;28;20020;-36
2024/03/24 10:25:32;;;;;;;2.22;1.65;;;10.30;78.40;;;;;;4981918;28;20023;-40
2024/03/24 10:27:58;;;;;;;3.40;1.90;;;10.40;78.50;;;;;;4969357;28;20114;-39
2024/03/24 10:30:25;;;;;;;3.17;1.90;;;10.40;78.50;;;;;;4974313;28;20148;-40
2024/03/24 10:32:51;;;;;;;3.38;1.98;;;10.40;78.50;;;;;;4972778;28;20038;-39
2024/03/24 10:35:19;;;;;;;3.63;1.70;;;10.40;78.50;;;;;;4969945;28;20110;-31
2024/03/24 10:37:45;;;;;;;3.33;1.92;;;10.40;78.50;;;;;;4971696;28;20027;-39
2024/03/24 10:40:14;;;;;;;4.13;1.90;;;10.40;78.50;;;;;;4974109;28;20189;-39
2024/03/24 10:42:53;;;;;;;4.15;1.80;;;10.40;78.40;;;;;;4960471;28;20022;-39
2024/03/24 10:45:24;;;;;;;3.30;1.65;;;10.50;78.50;;;;;;4983456;28;20020;-36
2024/03/24 10:47:56;;;;;;;3.08;1.65;;;10.50;78.50;;;;;;4966843;28;20054;-39
2024/03/24 10:50:22;;;;;;;4.38;1.90;;;10.50;78.50;;;;;;4969254;28;20109;-39
2024/03/24 10:52:53;;;;;;;2.83;1.60;;;10.50;78.50;;;;;;4968121;28;20155;-39
2024/03/24 10:55:19;;;;;;;2.55;1.50;;;10.50;78.50;;;;;;4981007;28;20463;-37
2024/03/24 10:57:47;;;;;;;4.85;1.70;;;10.50;78.40;;;;;;4975513;28;20035;-40
2024/03/24 11:00:14;;;;;;;3.53;1.73;;;10.60;78.40;;;;;;4975834;28;20050;-38
2024/03/24 11:02:41;;;;;;;4.20;1.70;;;10.60;78.30;;;;;;4977263;28;20023;-38
2024/03/24 11:05:08;;;;;;;3.15;1.67;;;10.60;78.30;;;;;;4977191;28;20023;-39
2024/03/24 11:07:34;;;;;;;2.42;1.58;;;10.60;78.30;;;;;;4973219;28;20023;-39
2024/03/24 11:10:00;;;;;;;5.13;1.80;;;10.70;78.40;;;;;;4977173;28;20054;-37
2024/03/24 11:12:26;;;;;;;4.07;1.60;;;10.70;78.30;;;;;;4984250;28;20022;-37
2024/03/24 11:14:52;;;;;;;2.75;1.52;;;10.70;78.30;;;;;;4982462;28;20022;-37
2024/03/24 11:17:19;;;;;;;2.38;1.55;;;10.70;78.30;;;;;;4983966;28;20053;-40
2024/03/24 11:19:51;;;;;;;3.03;1.52;;;10.70;78.30;;;;;;4977846;28;20044;-36
2024/03/24 11:22:44;;;;;;;6.55;1.60;;;10.80;78.30;;;;;;4982316;28;20066;-39
2024/03/24 11:25:10;;;;;;;4.53;1.80;;;10.80;78.30;;;;;;4987891;28;20058;-37
2024/03/24 11:27:41;;;;;;;3.08;1.80;;;10.80;78.30;;;;;;4975956;28;20031;-40
2024/03/24 11:30:14;;;;;;;5.28;1.98;;;10.80;78.20;;;;;;4983522;28;20042;-38
2024/03/24 11:32:52;;;;;;;3.75;1.70;;;10.90;78.30;;;;;;4970693;28;20028;-39
2024/03/24 11:35:23;;;;;;;2.63;1.58;;;10.90;78.20;;;;;;4980931;28;20031;-37
2024/03/24 11:37:50;;;;;;;3.75;1.80;;;10.90;78.20;;;;;;4971620;28;20065;-38
2024/03/24 11:40:16;;;;;;;3.45;1.75;;;10.90;78.20;;;;;;4983240;28;20054;-37
2024/03/24 11:42:43;;;;;;;4.82;1.60;;;11.00;78.20;;;;;;4982619;28;20494;-38
2024/03/24 11:45:33;;;;;;;2.75;1.55;;;11.00;78.20;;;;;;4980914;28;20045;-38
2024/03/24 11:48:16;;;;;;;5.13;1.60;;;11.10;78.20;;;;;;4983659;28;20034;-39
2024/03/24 11:50:46;;;;;;;6.75;1.92;;;11.10;78.20;;;;;;4978641;28;20040;-40
2024/03/24 11:53:13;;;;;;;4.82;1.90;;;11.10;78.10;;;;;;4982304;28;20046;-32
2024/03/24 11:55:40;;;;;;;3.30;1.80;;;11.10;78.10;;;;;;4986293;28;20218;-40
2024/03/24 11:58:06;;;;;;;4.75;2.15;;;11.10;78.10;;;;;;4980890;28;20091;-37
2024/03/24 12:00:32;;;;;;;3.85;1.70;;;11.10;78.70;;;;;;4978972;28;20031;-37
2024/03/24 12:02:58;;;;;;;5.43;1.70;;;11.20;78.10;;;;;;4959091;28;20070;-39
2024/03/24 12:05:24;;;;;;;4.38;1.70;;;11.20;78.00;;;;;;4980964;28;20057;-38
2024/03/24 12:07:50;;;;;;;4.70;2.33;;;11.20;78.00;;;;;;4984789;28;20026;-39
2024/03/24 12:10:16;;;;;;;5.55;2.00;;;11.20;78.00;;;;;;4983222;28;20557;-38
2024/03/24 12:12:42;;;;;;;5.80;2.00;;;11.30;78.70;;;;;;4982848;28;20415;-40
2024/03/24 12:15:09;;;;;;;5.63;2.05;;;11.30;78.00;;;;;;4976885;28;20083;-40
2024/03/24 12:17:34;;;;;;;4.68;1.90;;;11.30;77.90;;;;;;4978919;28;20019;-40
2024/03/24 12:20:04;;;;;;;3.72;1.85;;;11.40;77.90;;;;;;4979650;28;20030;-39
2024/03/24 12:22:33;;;;;;;5.47;2.00;;;11.40;77.90;;;;;;4978299;28;20038;-40
2024/03/24 12:25:00;;;;;;;3.83;1.77;;;11.40;77.80;;;;;;4981671;28;20027;-39
2024/03/24 12:27:26;;;;;;;4.32;1.70;;;11.50;77.80;;;;;;4966298;28;20094;-39
2024/03/24 12:29:58;;;;;;;4.63;1.73;;;11.50;77.80;;;;;;4983763;28;20054;-39
2024/03/24 12:32:33;;;;;;;2.75;1.63;;;11.50;77.80;;;;;;4978968;28;20034;-39
2024/03/24 12:35:00;;;;;;;3.85;1.67;;;11.50;77.80;;;;;;4982819;28;20451;-36
2024/03/24 12:37:27;;;;;;;4.05;1.80;;;11.50;77.80;;;;;;4982423;28;20057;-38
2024/03/24 12:39:53;;;;;;;3.35;1.80;;;11.50;77.80;;;;;;4979215;28;20044;-36
2024/03/24 12:42:20;;;;;;;3.13;1.77;;;11.60;77.80;;;;;;4964393;28;20231;-33
2024/03/24 12:44:46;;;;;;;4.38;1.80;;;11.60;77.80;;;;;;4975086;28;20031;-33
2024/03/24 12:47:16;;;;;;;3.38;1.50;;;11.60;77.80;;;;;;4971965;28;20081;-36
2024/03/24 12:49:42;;;;;;;3.90;1.70;;;11.60;77.80;;;;;;4979382;28;20777;-34